Main page
METAR-TAF:

METAR-TAF

Airports :

Cabinda Airport

Cabinda, Angola

latitude: 5-35-50S, longitude: 12-11-17E, elevation: 20 m

Current weather observation

The report was made 50 minutes ago, at 05:00 UTC
Wind 4 kt from the East
Temperature 27°C
Humidity 89%
Pressure 1009 hPa
Visibility 10 km or more
Broken clouds at a height of 900 ft
Overcast at a height of 2900 ft

METAR: FNCA 170500Z AUTO 09004KT 9999 BKN009 OVC029 27/25 Q1009

Time: 06:50 (05:50 UTC)

Forecast

The report was made 6 hours and 50 minutes ago, at 23:00 UTC
Forecast valid from 17 at 00 UTC to 17 at 12 UTC
Wind 5 kt from the East
Visibility: 8000 m
Scattered clouds at a height of 2000 ft
Broken clouds at a height of 3000 ft
Becoming
from 17 at 10 UTC to 17 at 12 UTC
light rain,

TAF: FNCA 162300Z 1700/1712 08005KT 8000 SCT020 BKN030 BECMG 1710/1712 -RA

Weather observations and forecasts of more than 4000 airports (METAR and TAF reports).

The available stations are represented by yellow and red dots on the map.

Hover mouse over dot to see the name of the station.

Then click to see weather observations and forecasts.

To change the map : click on the green buttons with a black cross to zoom in, on the green button with a dash to zoom out, or on the green arrows for adjacent maps.


METAR-TAF: